createdAt,value
2022-11-29T00:02:14.200Z,89.05
2022-11-29T00:04:44.163Z,88.88
2022-11-29T00:07:14.044Z,88.64
2022-11-29T00:09:43.842Z,88.46
2022-11-29T00:12:13.646Z,88.58
2022-11-29T00:14:43.981Z,89.20
2022-11-29T00:17:13.943Z,89.24
2022-11-29T00:19:45.073Z,89.93
2022-11-29T00:22:14.797Z,89.55
2022-11-29T00:24:44.794Z,88.84
2022-11-29T00:27:14.662Z,88.84
2022-11-29T00:29:44.859Z,88.84
2022-11-29T00:32:14.669Z,88.50
2022-11-29T00:34:44.674Z,88.46
2022-11-29T00:37:14.618Z,88.78
2022-11-29T00:39:44.367Z,88.77
2022-11-29T00:42:15.483Z,88.85
2022-11-29T00:44:45.536Z,88.56
2022-11-29T00:47:15.457Z,88.99
2022-11-29T00:49:45.238Z,89.04
2022-11-29T00:52:14.823Z,89.61
2022-11-29T00:54:44.869Z,89.86
2022-11-29T00:57:14.907Z,89.09
2022-11-29T00:59:44.647Z,89.21
2022-11-29T01:02:14.296Z,89.41
2022-11-29T01:04:44.431Z,89.41
2022-11-29T01:07:14.750Z,89.66
2022-11-29T01:09:44.518Z,89.43
2022-11-29T01:12:14.400Z,89.30
2022-11-29T01:14:44.516Z,89.63
2022-11-29T01:17:14.426Z,89.18
2022-11-29T01:19:50.455Z,88.89
2022-11-29T01:22:15.368Z,88.91
2022-11-29T01:24:45.298Z,88.60
2022-11-29T01:27:15.575Z,89.08
2022-11-29T01:29:45.371Z,89.38
2022-11-29T01:32:15.218Z,89.44
2022-11-29T01:34:45.285Z,89.44
2022-11-29T01:37:15.485Z,88.89
2022-11-29T01:39:45.239Z,89.49
2022-11-29T01:42:15.132Z,89.63
2022-11-29T01:45:05.621Z,88.96
2022-11-29T01:47:36.867Z,88.99
2022-11-29T01:50:09.855Z,89.21
2022-11-29T01:52:40.025Z,88.60
2022-11-29T01:55:11.117Z,89.31
2022-11-29T01:57:42.571Z,89.62
2022-11-29T02:00:17.684Z,89.38
2022-11-29T02:03:01.826Z,89.13
2022-11-29T02:05:32.700Z,89.15
2022-11-29T02:08:02.992Z,88.70
2022-11-29T02:10:35.763Z,88.93
2022-11-29T02:13:29.384Z,88.21
2022-11-29T02:16:07.857Z,87.91
2022-11-29T02:18:48.857Z,88.41
2022-11-29T02:21:33.628Z,89.21
2022-11-29T02:24:07.306Z,89.39
2022-11-29T02:26:59.109Z,89.15
2022-11-29T02:29:52.620Z,89.09
2022-11-29T02:32:53.446Z,89.09
2022-11-29T02:35:31.850Z,89.06
2022-11-29T02:38:36.977Z,89.31
2022-11-29T02:41:30.349Z,89.30
2022-11-29T02:44:20.800Z,89.41
2022-11-29T02:47:28.166Z,89.80
2022-11-29T02:50:21.919Z,89.42
2022-11-29T02:53:16.812Z,88.68
2022-11-29T02:55:55.285Z,89.53
2022-11-29T02:58:27.794Z,88.71
2022-11-29T03:01:00.693Z,89.03
2022-11-29T03:03:36.636Z,88.31
2022-11-29T03:06:29.463Z,88.92
2022-11-29T03:09:02.261Z,89.29
2022-11-29T03:11:40.891Z,89.21
2022-11-29T03:14:24.937Z,89.28
2022-11-29T03:17:06.429Z,89.71
2022-11-29T03:19:57.195Z,89.04
2022-11-29T03:25:25.968Z,89.10
2022-11-29T03:28:02.093Z,89.86
2022-11-29T03:30:35.275Z,89.08
2022-11-29T03:33:08.060Z,89.04
2022-11-29T03:35:46.562Z,88.95
2022-11-29T03:38:35.608Z,89.07
2022-11-29T03:41:19.716Z,89.60
2022-11-29T03:43:55.626Z,88.90
2022-11-29T03:46:28.141Z,88.24
2022-11-29T03:49:06.890Z,88.81
2022-11-29T03:52:12.443Z,89.16
2022-11-29T03:55:03.177Z,89.16
2022-11-29T03:57:41.873Z,89.99
2022-11-29T04:00:15.044Z,90.25
2022-11-29T04:03:00.901Z,90.12
2022-11-29T04:05:58.813Z,89.92
2022-11-29T04:08:52.447Z,90.10
2022-11-29T04:11:30.391Z,89.29
2022-11-29T04:14:34.855Z,89.40
2022-11-29T04:17:22.374Z,89.51
2022-11-29T04:20:28.113Z,89.55
2022-11-29T04:23:22.868Z,89.45
2022-11-29T04:26:22.135Z,88.86
2022-11-29T04:29:06.571Z,89.04
2022-11-29T04:31:53.991Z,89.03
2022-11-29T04:34:44.990Z,88.57
2022-11-29T04:37:23.896Z,89.59
2022-11-29T04:40:18.690Z,88.99
2022-11-29T04:43:18.475Z,89.37
2022-11-29T04:45:50.956Z,89.41
2022-11-29T04:48:29.309Z,89.01
2022-11-29T04:51:10.651Z,89.30
2022-11-29T04:54:14.991Z,88.67
2022-11-29T04:56:50.393Z,88.82
2022-11-29T04:59:28.730Z,89.33
2022-11-29T05:02:04.282Z,89.36
2022-11-29T05:04:37.043Z,89.08
2022-11-29T05:07:42.868Z,89.69
2022-11-29T05:10:42.058Z,89.87
2022-11-29T05:13:31.032Z,90.07
2022-11-29T05:16:03.883Z,89.80
2022-11-29T05:18:59.079Z,89.75
2022-11-29T05:21:46.587Z,89.90
2022-11-29T05:27:18.533Z,90.21
2022-11-29T05:29:51.616Z,89.89
2022-11-29T05:32:32.952Z,89.73
2022-11-29T05:35:10.732Z,89.33
2022-11-29T05:37:43.901Z,89.31
2022-11-29T05:40:34.522Z,89.81
2022-11-29T05:43:09.876Z,89.07
2022-11-29T05:45:57.675Z,89.43
2022-11-29T05:49:01.659Z,90.15
2022-11-29T05:51:43.322Z,90.69
2022-11-29T05:54:39.847Z,89.87
2022-11-29T05:57:29.036Z,90.02
2022-11-29T06:00:01.489Z,90.82
2022-11-29T06:02:56.798Z,90.65
2022-11-29T06:05:32.315Z,90.42
2022-11-29T06:08:24.590Z,90.38
2022-11-29T06:13:51.776Z,89.91
2022-11-29T06:16:58.460Z,89.91
2022-11-29T06:19:39.423Z,89.89
2022-11-29T06:22:25.787Z,90.21
2022-11-29T06:25:17.322Z,90.82
2022-11-29T06:28:05.167Z,90.72
2022-11-29T06:30:38.237Z,90.71
2022-11-29T06:33:17.045Z,90.05
2022-11-29T06:36:07.516Z,90.06
2022-11-29T06:38:37.385Z,90.06
2022-11-29T06:41:07.849Z,89.92
2022-11-29T06:43:37.880Z,90.23
2022-11-29T06:46:27.695Z,90.27
2022-11-29T06:49:15.035Z,89.69
2022-11-29T06:52:08.833Z,90.63
2022-11-29T06:54:56.238Z,90.54
2022-11-29T06:57:49.419Z,90.67
2022-11-29T07:00:25.595Z,90.67
2022-11-29T07:03:23.986Z,91.19
2022-11-29T07:05:53.957Z,91.07
2022-11-29T07:08:25.380Z,90.34
2022-11-29T07:10:56.031Z,90.81
2022-11-29T07:13:26.012Z,90.81
2022-11-29T07:16:01.306Z,91.42
2022-11-29T07:19:00.871Z,90.64
2022-11-29T07:21:42.264Z,90.34
2022-11-29T07:24:45.762Z,89.86
2022-11-29T07:27:38.031Z,90.33
2022-11-29T07:30:14.819Z,90.21
2022-11-29T07:33:00.364Z,89.96
2022-11-29T07:35:39.129Z,90.34
2022-11-29T07:38:26.609Z,90.24
2022-11-29T07:41:20.246Z,89.92
2022-11-29T07:44:07.907Z,90.54
2022-11-29T07:46:37.712Z,89.88
2022-11-29T07:49:09.025Z,89.39
2022-11-29T07:51:39.134Z,89.98
2022-11-29T07:54:13.297Z,90.13
2022-11-29T07:56:42.753Z,90.62
2022-11-29T07:59:12.888Z,90.18
2022-11-29T08:01:43.120Z,89.45
2022-11-29T08:04:13.779Z,89.97
2022-11-29T08:06:43.257Z,90.44
2022-11-29T08:09:13.303Z,90.17
2022-11-29T08:11:43.053Z,90.27
2022-11-29T08:14:12.787Z,91.08
2022-11-29T08:16:42.598Z,91.08
2022-11-29T08:19:12.388Z,91.10
2022-11-29T08:21:47.711Z,90.49
2022-11-29T08:24:17.519Z,90.59
2022-11-29T08:26:47.405Z,90.74
2022-11-29T08:29:17.441Z,89.94
2022-11-29T08:31:47.515Z,90.14
2022-11-29T08:34:17.001Z,90.14
2022-11-29T08:36:46.798Z,90.59
2022-11-29T08:42:05.537Z,90.81
2022-11-29T08:44:35.278Z,91.57
2022-11-29T08:47:22.530Z,90.86
2022-11-29T08:50:04.410Z,90.57
2022-11-29T08:52:54.996Z,89.85
2022-11-29T08:55:27.494Z,90.05
2022-11-29T08:58:03.188Z,89.79
2022-11-29T09:00:33.694Z,90.04
2022-11-29T09:03:22.376Z,90.11
2022-11-29T09:05:52.537Z,89.75
2022-11-29T09:08:22.743Z,90.61
2022-11-29T09:10:53.159Z,91.08
2022-11-29T09:13:22.964Z,90.69
2022-11-29T09:15:52.704Z,90.21
2022-11-29T09:18:22.654Z,90.04
2022-11-29T09:20:52.699Z,88.86
2022-11-29T09:23:22.759Z,89.99
2022-11-29T09:25:52.510Z,90.82
2022-11-29T09:28:22.247Z,90.50
2022-11-29T09:30:52.016Z,90.64
2022-11-29T09:33:22.090Z,90.82
2022-11-29T09:35:52.158Z,89.67
2022-11-29T09:38:21.742Z,88.78
2022-11-29T09:40:59.751Z,88.78
2022-11-29T09:43:41.365Z,89.23
2022-11-29T09:46:18.234Z,89.64
2022-11-29T09:48:59.724Z,91.08
2022-11-29T09:51:50.325Z,90.56
2022-11-29T09:54:37.918Z,89.35
2022-11-29T09:57:11.027Z,89.21
2022-11-29T09:59:46.761Z,89.00
2022-11-29T10:02:34.269Z,87.99
2022-11-29T10:05:29.929Z,87.99
2022-11-29T10:08:11.189Z,88.02
2022-11-29T10:10:46.228Z,88.15
2022-11-29T10:13:27.505Z,88.37
2022-11-29T10:16:09.322Z,88.37
2022-11-29T10:18:44.866Z,88.01
2022-11-29T10:21:17.553Z,88.18
2022-11-29T10:23:53.123Z,86.95
2022-11-29T10:26:24.391Z,87.96
2022-11-29T10:28:55.850Z,87.55
2022-11-29T10:31:28.842Z,87.55
2022-11-29T10:34:01.508Z,87.54
2022-11-29T10:36:37.134Z,87.54
2022-11-29T10:39:11.484Z,87.46
2022-11-29T10:41:39.421Z,87.83
2022-11-29T10:44:13.767Z,88.19
2022-11-29T10:46:43.698Z,87.38
2022-11-29T10:49:16.546Z,87.35
2022-11-29T10:51:47.636Z,88.22
2022-11-29T10:54:35.532Z,88.11
2022-11-29T10:57:08.325Z,88.72
2022-11-29T10:59:38.442Z,88.33
2022-11-29T11:02:20.077Z,88.16
2022-11-29T11:04:50.257Z,88.66
2022-11-29T11:07:26.135Z,88.02
2022-11-29T11:09:57.021Z,87.58
2022-11-29T11:12:30.240Z,88.25
2022-11-29T11:15:15.538Z,86.93
2022-11-29T11:18:00.502Z,87.19
2022-11-29T11:20:32.472Z,86.42
2022-11-29T11:23:05.487Z,86.89
2022-11-29T11:25:41.628Z,86.88
2022-11-29T11:28:16.350Z,87.24
2022-11-29T11:30:51.405Z,86.60
2022-11-29T11:33:24.844Z,86.09
2022-11-29T11:36:23.438Z,86.07
2022-11-29T11:39:02.335Z,86.49
2022-11-29T11:41:52.475Z,87.91
2022-11-29T11:44:58.328Z,87.12
2022-11-29T11:47:02.704Z,86.69
2022-11-29T11:49:37.958Z,87.58
2022-11-29T11:52:12.415Z,87.32
2022-11-29T11:54:45.756Z,87.66
2022-11-29T11:57:23.874Z,86.51
2022-11-29T11:59:56.264Z,86.17
2022-11-29T12:02:39.939Z,87.02
2022-11-29T12:05:15.543Z,87.24
2022-11-29T12:08:08.209Z,86.92
2022-11-29T12:10:25.737Z,87.78
2022-11-29T12:12:57.504Z,87.32
2022-11-29T12:15:33.213Z,86.67
2022-11-29T12:18:14.171Z,86.05
2022-11-29T12:20:58.271Z,86.05
2022-11-29T12:23:33.692Z,86.19
2022-11-29T12:26:10.652Z,86.79
2022-11-29T12:28:43.684Z,86.11
2022-11-29T12:31:19.351Z,85.82
2022-11-29T12:34:00.438Z,84.72
2022-11-29T12:36:45.176Z,85.67
2022-11-29T12:39:44.586Z,86.02
2022-11-29T12:42:42.840Z,86.40
2022-11-29T12:45:27.513Z,86.17
2022-11-29T12:48:09.233Z,85.75
2022-11-29T12:50:59.644Z,85.48
2022-11-29T12:53:38.027Z,85.49
2022-11-29T12:56:25.963Z,85.57
2022-11-29T12:59:21.055Z,85.37
2022-11-29T13:02:10.314Z,85.18
2022-11-29T13:04:59.622Z,86.21
2022-11-29T13:07:43.642Z,86.50
2022-11-29T13:10:24.330Z,86.20
2022-11-29T13:13:05.971Z,86.20
2022-11-29T13:15:56.562Z,85.10
2022-11-29T13:18:37.904Z,84.64
2022-11-29T13:21:16.368Z,85.15
2022-11-29T13:24:10.104Z,85.90
2022-11-29T13:26:42.717Z,85.79
2022-11-29T13:29:19.573Z,85.66
2022-11-29T13:31:49.881Z,84.96
2022-11-29T13:34:25.236Z,84.39
2022-11-29T13:37:10.107Z,84.87
2022-11-29T13:39:42.638Z,85.04
2022-11-29T13:42:15.423Z,85.43
2022-11-29T13:45:07.474Z,85.43
2022-11-29T13:47:43.103Z,85.35
2022-11-29T13:50:43.609Z,84.47
2022-11-29T13:53:25.124Z,85.05
2022-11-29T13:56:03.076Z,85.05
2022-11-29T13:58:40.363Z,84.88
2022-11-29T14:01:13.551Z,84.96
2022-11-29T14:03:46.281Z,85.33
2022-11-29T14:06:20.886Z,84.97
2022-11-29T14:09:18.395Z,84.96
2022-11-29T14:11:39.488Z,84.99
2022-11-29T14:14:18.223Z,86.23
2022-11-29T14:16:53.859Z,84.96
2022-11-29T14:19:35.463Z,84.80
2022-11-29T14:22:19.077Z,85.29
2022-11-29T14:25:00.899Z,85.36
2022-11-29T14:27:33.740Z,85.74
2022-11-29T14:30:04.028Z,85.29
2022-11-29T14:32:46.508Z,85.59
2022-11-29T14:35:24.510Z,85.68
2022-11-29T14:38:06.126Z,85.63
2022-11-29T14:40:44.514Z,85.42
2022-11-29T14:43:23.407Z,86.15
2022-11-29T14:46:14.392Z,85.38
2022-11-29T14:48:47.304Z,85.94
2022-11-29T14:51:19.791Z,85.29
2022-11-29T14:53:55.371Z,86.02
2022-11-29T14:56:38.070Z,85.65
2022-11-29T14:59:43.634Z,85.89
2022-11-29T15:02:31.685Z,86.10
2022-11-29T15:05:19.958Z,87.21
2022-11-29T15:07:55.452Z,85.89
2022-11-29T15:10:28.337Z,86.05
2022-11-29T15:13:01.290Z,86.86
2022-11-29T15:15:37.196Z,86.86
2022-11-29T15:18:19.302Z,87.13
2022-11-29T15:21:13.120Z,87.65
2022-11-29T15:23:43.975Z,87.36
2022-11-29T15:26:21.540Z,86.95
2022-11-29T15:28:51.278Z,87.07
2022-11-29T15:31:22.576Z,87.15
2022-11-29T15:33:52.305Z,86.89
2022-11-29T15:36:24.990Z,87.20
2022-11-29T15:38:58.759Z,86.95
2022-11-29T15:41:30.937Z,87.89
2022-11-29T15:44:03.498Z,87.43
2022-11-29T15:46:35.295Z,87.70
2022-11-29T15:49:18.757Z,88.60
2022-11-29T15:51:51.553Z,88.61
2022-11-29T15:54:36.407Z,87.68
2022-11-29T15:57:17.609Z,87.96
2022-11-29T15:59:53.108Z,88.94
2022-11-29T16:02:29.111Z,88.61
2022-11-29T16:05:13.616Z,88.23
2022-11-29T16:07:45.121Z,89.30
2022-11-29T16:10:19.619Z,88.95
2022-11-29T16:13:00.693Z,88.38
2022-11-29T16:15:33.479Z,88.36
2022-11-29T16:18:12.307Z,88.46
2022-11-29T16:20:42.326Z,88.46
2022-11-29T16:23:14.764Z,88.04
2022-11-29T16:26:03.966Z,88.58
2022-11-29T16:28:36.702Z,88.58
2022-11-29T16:31:06.883Z,88.58
2022-11-29T16:33:38.647Z,89.95
2022-11-29T16:36:19.997Z,90.74
2022-11-29T16:38:52.598Z,90.27
2022-11-29T16:41:34.323Z,90.11
2022-11-29T16:44:05.979Z,89.86
2022-11-29T16:46:40.351Z,89.74
2022-11-29T16:49:33.677Z,88.61
2022-11-29T16:52:05.042Z,88.71
2022-11-29T16:54:34.863Z,88.43
2022-11-29T16:57:07.197Z,90.75
2022-11-29T16:59:38.507Z,89.84
2022-11-29T17:02:13.909Z,89.27
2022-11-29T17:04:44.486Z,90.85
2022-11-29T17:07:23.432Z,90.85
2022-11-29T17:09:53.436Z,90.09
2022-11-29T17:12:23.180Z,90.41
2022-11-29T17:14:53.236Z,89.92
2022-11-29T17:17:22.989Z,89.55
2022-11-29T17:19:53.010Z,89.01
2022-11-29T17:22:22.758Z,89.09
2022-11-29T17:24:53.419Z,89.09
2022-11-29T17:27:23.804Z,90.00
2022-11-29T17:29:53.837Z,89.38
2022-11-29T17:32:26.790Z,89.03
2022-11-29T17:34:55.378Z,89.78
2022-11-29T17:37:25.549Z,91.56
2022-11-29T17:39:56.560Z,90.95
2022-11-29T17:42:26.554Z,90.72
2022-11-29T17:44:56.670Z,90.68
2022-11-29T17:47:26.103Z,91.32
2022-11-29T17:49:56.237Z,92.07
2022-11-29T17:52:25.963Z,92.11
2022-11-29T17:54:55.988Z,91.07
2022-11-29T17:57:25.727Z,90.17
2022-11-29T17:59:55.854Z,89.77
2022-11-29T18:02:25.612Z,90.40
2022-11-29T18:04:55.692Z,90.11
2022-11-29T18:07:25.542Z,90.08
2022-11-29T18:09:55.545Z,89.73
2022-11-29T18:12:25.581Z,89.74
2022-11-29T18:14:55.337Z,90.11
2022-11-29T18:17:25.084Z,89.29
2022-11-29T18:19:54.836Z,90.27
2022-11-29T18:22:24.605Z,90.27
2022-11-29T18:25:05.402Z,90.13
2022-11-29T18:27:26.064Z,89.53
2022-11-29T18:29:55.808Z,89.52
2022-11-29T18:32:25.617Z,89.52
2022-11-29T18:34:55.737Z,88.46
2022-11-29T18:37:54.455Z,90.30
2022-11-29T18:39:57.071Z,91.28
2022-11-29T18:42:26.811Z,91.56
2022-11-29T18:44:58.806Z,91.90
2022-11-29T18:47:29.599Z,92.15
2022-11-29T18:49:59.671Z,93.04
2022-11-29T18:52:30.055Z,93.04
2022-11-29T18:54:59.794Z,92.30
2022-11-29T18:57:29.564Z,92.82
2022-11-29T18:59:59.312Z,92.83
2022-11-29T19:02:28.819Z,92.57
2022-11-29T19:04:58.607Z,94.04
2022-11-29T19:07:29.269Z,94.03
2022-11-29T19:09:59.117Z,95.03
2022-11-29T19:12:29.124Z,94.49
2022-11-29T19:14:58.616Z,95.25
2022-11-29T19:17:29.424Z,94.49
2022-11-29T19:19:59.368Z,95.47
2022-11-29T19:22:29.884Z,95.31
2022-11-29T19:25:00.597Z,94.69
2022-11-29T19:27:30.319Z,94.70
2022-11-29T19:30:00.086Z,94.58
2022-11-29T19:32:29.904Z,95.28
2022-11-29T19:34:59.918Z,94.83
2022-11-29T19:37:29.659Z,95.79
2022-11-29T19:39:59.386Z,95.26
2022-11-29T19:42:28.847Z,95.16
2022-11-29T19:45:16.641Z,96.23
2022-11-29T19:47:30.038Z,94.87
2022-11-29T19:50:02.653Z,94.92
2022-11-29T19:52:31.360Z,94.19
2022-11-29T19:55:01.115Z,94.27
2022-11-29T19:57:30.844Z,93.90
2022-11-29T20:00:00.700Z,93.86
2022-11-29T20:02:32.307Z,93.81
2022-11-29T20:05:02.201Z,93.81
2022-11-29T20:07:32.020Z,94.01
2022-11-29T20:10:01.755Z,94.01
2022-11-29T20:12:32.714Z,93.99
2022-11-29T20:15:02.468Z,94.59
2022-11-29T20:17:32.589Z,94.21
2022-11-29T20:20:02.439Z,94.50
2022-11-29T20:22:32.253Z,95.10
2022-11-29T20:25:01.991Z,94.38
2022-11-29T20:27:32.027Z,94.42
2022-11-29T20:30:01.779Z,93.38
2022-11-29T20:32:31.317Z,93.38
2022-11-29T20:35:02.402Z,92.90
2022-11-29T20:37:35.933Z,93.31
2022-11-29T20:40:08.653Z,93.36
2022-11-29T20:42:41.985Z,93.98
2022-11-29T20:45:14.344Z,93.53
2022-11-29T20:47:50.323Z,93.43
2022-11-29T20:50:23.796Z,93.18
2022-11-29T20:53:02.721Z,93.35
2022-11-29T20:55:32.596Z,94.93
2022-11-29T20:58:02.414Z,94.08
2022-11-29T21:00:32.155Z,94.08
2022-11-29T21:03:01.988Z,94.08
2022-11-29T21:05:31.738Z,92.98
2022-11-29T21:08:02.334Z,92.86
2022-11-29T21:10:32.149Z,93.06
2022-11-29T21:13:02.239Z,92.51
2022-11-29T21:15:32.327Z,92.40
2022-11-29T21:18:02.317Z,93.04
2022-11-29T21:20:32.371Z,94.00
2022-11-29T21:23:05.132Z,92.34
2022-11-29T21:25:46.506Z,92.65
2022-11-29T21:28:17.706Z,92.99
2022-11-29T21:30:47.591Z,92.99
2022-11-29T21:33:17.589Z,93.27
2022-11-29T21:35:48.055Z,93.78
2022-11-29T21:38:21.134Z,93.33
2022-11-29T21:40:50.889Z,93.32
2022-11-29T21:43:22.799Z,92.78
2022-11-29T21:45:52.074Z,92.77
2022-11-29T21:48:37.712Z,92.77
2022-11-29T21:51:09.088Z,93.09
2022-11-29T21:53:40.282Z,92.22
2022-11-29T21:56:12.091Z,91.65
2022-11-29T21:58:42.163Z,92.55
2022-11-29T22:01:14.899Z,92.26
2022-11-29T22:03:45.034Z,91.69
2022-11-29T22:06:23.209Z,91.37
2022-11-29T22:08:52.948Z,92.16
2022-11-29T22:11:34.707Z,92.62
2022-11-29T22:14:15.000Z,92.79
2022-11-29T22:16:47.836Z,92.62
2022-11-29T22:19:29.435Z,92.62
2022-11-29T22:22:04.600Z,91.76
2022-11-29T22:24:36.565Z,91.76
2022-11-29T22:27:06.557Z,91.54
2022-11-29T22:29:36.372Z,92.69
2022-11-29T22:32:06.753Z,92.05
2022-11-29T22:34:36.483Z,91.67
2022-11-29T22:37:06.237Z,91.13
2022-11-29T22:39:35.720Z,91.79
2022-11-29T22:42:06.656Z,90.36
2022-11-29T22:44:36.412Z,89.93
2022-11-29T22:47:06.212Z,90.79
2022-11-29T22:49:35.772Z,90.58
2022-11-29T22:52:06.733Z,91.09
2022-11-29T22:54:36.460Z,90.62
2022-11-29T22:57:06.234Z,90.15
2022-11-29T22:59:36.332Z,89.59
2022-11-29T23:02:07.119Z,90.24
2022-11-29T23:04:37.181Z,90.85
2022-11-29T23:07:07.230Z,91.05
2022-11-29T23:09:36.670Z,90.00
2022-11-29T23:12:08.086Z,90.28
2022-11-29T23:14:37.836Z,89.80
2022-11-29T23:17:07.573Z,89.21
2022-11-29T23:19:37.306Z,90.46
2022-11-29T23:22:08.484Z,91.13
2022-11-29T23:24:39.931Z,91.41
2022-11-29T23:27:09.748Z,90.24
2022-11-29T23:29:39.467Z,91.30
2022-11-29T23:32:09.587Z,90.32
2022-11-29T23:34:39.367Z,90.12
2022-11-29T23:37:09.630Z,90.17
2022-11-29T23:39:39.362Z,91.25
2022-11-29T23:42:09.120Z,90.85
2022-11-29T23:44:38.882Z,90.19
2022-11-29T23:47:08.616Z,90.08
2022-11-29T23:49:39.743Z,89.33
2022-11-29T23:52:10.493Z,89.66
2022-11-29T23:54:40.234Z,89.66
2022-11-29T23:57:09.982Z,89.83
2022-11-29T23:59:39.725Z,87.79
